Richmond, Louisiana
Current Conditions -  °F | °C
As of 4:53 AM on Friday 19 Dec 2014 (Local Time) from KTVR Reporting Station
Overcast Overcast  
Wind Chill: 50°   Ceiling: 2800
Heat Index: 50°   Visibility: 10mi
Dew Point: 43°   Wind: 8mph
Humidity: 77%   Direction: 60°ENE
Pressure: 30.13"   Gusts: NA
Location:  32.3599°N, 91.2529°W
Report Text: KTVR 191053Z AUTO 06007KT 10SM OVC028 10/06 A3013 RMK AO2 SLP209 T01000061
Loading
Personal Weather Stations






























Interactive Weather Map New forecast layout! Learn more

10-Day Weather Forecast

Advertisements
Track Severe Weather on mobile